Portada
METAR-TAF:

METAR-TAF

Aeroports :

Leh, Índia

latitud: 34-08-09N, longitud: 077-32-47E, altitud: 3256 m

METAR: manca

Hora: 03:27 (21:57 UTC)

Pronòstic

L'informe es va fer fa 12 hores i 27 minuts, a les 09:30 UTC
Pronòstic vàlid del 27 a les 18 UTC al 28 a les 12 UTC
Vent 5 kt del Oest/Nord-Oest
Visibilitat: 6000 m
Escasses núvols a una alçada de 7000 ft
Núvols disperses a una alçada de 15000 ft
Temporalment
l' 28 a les 08 UTC al 28 a les 12 UTC
Vent 15 kt del Oest/Nord-Oest amb ràfegues de 25 kt
Visibilitat: 6000 m
Escasses núvols a una alçada de 5000 ft, Cumulus congestus.
Núvols disperses a una alçada de 7000 ft

TAF: VILH 270930Z 2718/2812 29005KT 6000 FEW070 SCT150 TEMPO 2808/2812 30015G25KT 6000 FEW050TCU SCT070

Observacions i pronòstics meteorològics de més de 4000 aeroports (METAR i TAF).

Les estacions disponibles són els punts grocs i vermells al mapa.

Posi el ratolí al punt desitjat per veure el nom de l'estació.

Feu clic per veure les observacions i els pronòstics meteorològics.

Per canviar el mapa: feu clic els botons verds amb una creu de color negre per apropar; al botó verd amb un guió per allunyar la imatge; o en les fletxes verdes per a mapes adjacents.


METAR-TAF: